createdAt,value
2023-04-15T00:20:47.129Z,99619.72
2023-04-15T00:50:50.526Z,99607.52
2023-04-15T01:20:53.461Z,99605.94
2023-04-15T01:50:57.078Z,99622.52
2023-04-15T02:21:00.884Z,99623.01
2023-04-15T02:51:04.176Z,99624.27
2023-04-15T03:21:07.582Z,99624.59
2023-04-15T03:51:10.762Z,99633.03
2023-04-15T04:21:13.738Z,99653.50
2023-04-15T04:51:17.137Z,99670.67
2023-04-15T05:21:21.190Z,99676.84
2023-04-15T05:51:24.405Z,99687.09
2023-04-15T06:21:28.062Z,99704.03
2023-04-15T06:51:31.227Z,99721.86
2023-04-15T07:21:34.225Z,99746.02
2023-04-15T07:51:37.673Z,99757.42
2023-04-15T08:21:41.168Z,99777.85
2023-04-15T08:51:44.434Z,99795.02
2023-04-15T09:21:47.368Z,99817.59
2023-04-15T09:52:01.658Z,99847.81
2023-04-15T10:22:08.516Z,99854.81
2023-04-15T10:52:11.968Z,99871.53
2023-04-15T11:22:14.930Z,99890.89
2023-04-15T11:52:18.240Z,99912.94
2023-04-15T12:22:21.282Z,99949.52
2023-04-15T12:52:24.541Z,99963.33
2023-04-15T13:22:28.181Z,99983.72
2023-04-15T13:52:31.699Z,99995.59
2023-04-15T14:22:34.953Z,100015.28
2023-04-15T14:52:38.349Z,100033.88
2023-04-15T15:22:42.106Z,100040.31
2023-04-15T15:52:45.745Z,100064.53
2023-04-15T16:22:52.866Z,100098.55
2023-04-15T16:52:55.796Z,100128.72
2023-04-15T17:23:00.004Z,100158.81
2023-04-15T17:53:02.853Z,100178.00
2023-04-15T18:23:07.367Z,100208.09
2023-04-15T18:53:10.268Z,100237.06
2023-04-15T19:23:13.911Z,100259.34
2023-04-15T19:53:16.884Z,100290.31
2023-04-15T20:23:21.178Z,100298.36
2023-04-15T20:53:24.070Z,100341.80
2023-04-15T21:23:28.006Z,100375.98
2023-04-15T21:53:30.964Z,100395.96
2023-04-15T22:23:34.770Z,100418.07
2023-04-15T22:53:38.274Z,100458.75
2023-04-15T23:23:41.361Z,100459.13
2023-04-15T23:53:44.282Z,100484.01
